< < Back
Terminal Aerodrome Forecast


Current Version              Previous Versions:   1  2  3  4  5  6  7  8  9  

Terminal Aerodrome Forecast

394
FTUS42 KCHS 271100
TAFCHS
TAF
KCHS 271123Z 2712/2812 25010KT P6SM SKC WS010/27040KT
     FM271330 25013G20KT P6SM SKC
     FM271500 29017G25KT P6SM SCT050
     FM272230 33007KT P6SM SKC=

Latest METAR

517
SAUS80 KWBC 280100
MTRCHS
METAR KCHS 280056Z 28005KT 10SM CLR 07/01 A3024 RMK AO2 SLP238
T00720011


USA.gov is the U.S. government's official web portal to all federal, state and local government web resources and services.